createdAt,value
2017-10-07T00:01:34.681Z,8.55
2017-10-07T00:04:04.479Z,8.53
2017-10-07T00:06:34.210Z,8.48
2017-10-07T00:09:03.679Z,8.45
2017-10-07T00:11:33.406Z,8.45
2017-10-07T00:14:03.149Z,8.50
2017-10-07T00:16:32.871Z,8.60
2017-10-07T00:19:02.603Z,8.62
2017-10-07T00:21:32.313Z,8.56
2017-10-07T00:24:02.053Z,8.41
2017-10-07T00:26:31.799Z,8.29
2017-10-07T00:29:01.523Z,8.17
2017-10-07T00:31:31.253Z,8.18
2017-10-07T00:34:00.982Z,8.13
2017-10-07T00:36:30.524Z,8.18
2017-10-07T00:39:00.284Z,8.15
2017-10-07T00:41:30.032Z,8.26
2017-10-07T00:44:00.052Z,8.17
2017-10-07T00:46:29.799Z,8.06
2017-10-07T00:48:59.605Z,8.02
2017-10-07T00:51:29.372Z,8.06
2017-10-07T00:53:59.108Z,8.09
2017-10-07T00:56:28.499Z,8.20
2017-10-07T00:58:57.750Z,8.17
2017-10-07T01:01:26.968Z,8.34
2017-10-07T01:03:56.551Z,8.29
2017-10-07T01:06:26.117Z,8.38
2017-10-07T01:08:55.493Z,8.44
2017-10-07T01:11:25.244Z,8.46
2017-10-07T01:13:54.998Z,8.50
2017-10-07T01:16:24.715Z,8.58
2017-10-07T01:18:54.459Z,8.69
2017-10-07T01:21:23.849Z,8.62
2017-10-07T01:23:53.236Z,8.55
2017-10-07T01:26:22.639Z,8.56
2017-10-07T01:28:52.062Z,8.58
2017-10-07T01:31:21.849Z,8.61
2017-10-07T01:33:51.267Z,8.65
2017-10-07T01:36:21.024Z,8.65
2017-10-07T01:38:50.280Z,8.72
2017-10-07T01:41:20.053Z,8.72
2017-10-07T01:43:49.793Z,8.86
2017-10-07T01:46:19.697Z,8.86
2017-10-07T01:48:49.433Z,8.75
2017-10-07T01:51:19.209Z,8.61
2017-10-07T01:53:48.931Z,8.60
2017-10-07T01:56:18.744Z,8.51
2017-10-07T01:58:48.511Z,8.41
2017-10-07T02:01:18.243Z,8.30
2017-10-07T02:03:47.990Z,8.20
2017-10-07T02:06:17.766Z,8.20
2017-10-07T02:08:47.507Z,8.11
2017-10-07T02:11:17.267Z,8.16
2017-10-07T02:13:46.994Z,8.26
2017-10-07T02:16:16.727Z,8.18
2017-10-07T02:18:46.460Z,8.11
2017-10-07T02:21:16.008Z,8.10
2017-10-07T02:23:45.749Z,8.06
2017-10-07T02:26:15.474Z,8.22
2017-10-07T02:28:45.206Z,8.20
2017-10-07T02:31:14.933Z,8.43
2017-10-07T02:33:44.672Z,8.54
2017-10-07T02:36:14.412Z,8.57
2017-10-07T02:38:44.138Z,8.58
2017-10-07T02:41:13.935Z,8.60
2017-10-07T02:43:43.661Z,8.62
2017-10-07T02:46:13.398Z,8.68
2017-10-07T02:48:43.128Z,8.76
2017-10-07T02:51:12.842Z,8.80
2017-10-07T02:53:42.583Z,8.80
2017-10-07T02:56:12.330Z,8.81
2017-10-07T02:58:42.066Z,8.88
2017-10-07T03:01:11.798Z,8.87
2017-10-07T03:03:41.543Z,8.92
2017-10-07T03:06:11.284Z,8.92
2017-10-07T03:08:41.018Z,9.05
2017-10-07T03:11:10.788Z,9.10
2017-10-07T03:13:40.336Z,9.12
2017-10-07T03:16:10.041Z,9.18
2017-10-07T03:18:39.768Z,9.28
2017-10-07T03:21:09.533Z,9.27
2017-10-07T03:23:39.254Z,9.31
2017-10-07T03:26:08.990Z,9.33
2017-10-07T03:28:38.702Z,9.32
2017-10-07T03:31:08.447Z,9.34
2017-10-07T03:33:37.991Z,9.44
2017-10-07T03:36:07.714Z,9.42
2017-10-07T03:38:37.277Z,9.50
2017-10-07T03:41:06.879Z,9.46
2017-10-07T03:43:36.443Z,9.44
2017-10-07T03:46:05.990Z,9.47
2017-10-07T03:48:35.853Z,9.37
2017-10-07T03:51:05.646Z,9.37
2017-10-07T03:53:35.042Z,9.22
2017-10-07T03:56:04.850Z,9.21
2017-10-07T03:58:34.609Z,9.15
2017-10-07T04:01:04.424Z,9.15
2017-10-07T04:03:34.177Z,9.10
2017-10-07T04:06:03.968Z,9.02
2017-10-07T04:08:33.726Z,9.03
2017-10-07T04:11:03.484Z,8.84
2017-10-07T04:13:33.250Z,8.72
2017-10-07T04:16:03.004Z,8.72
2017-10-07T04:18:32.762Z,8.67
2017-10-07T04:21:02.897Z,8.47
2017-10-07T04:23:32.748Z,8.32
2017-10-07T04:26:02.505Z,8.17
2017-10-07T04:28:32.289Z,8.08
2017-10-07T04:31:02.093Z,7.98
2017-10-07T04:33:32.175Z,7.98
2017-10-07T04:36:01.961Z,7.87
2017-10-07T04:38:31.922Z,7.91
2017-10-07T04:41:01.742Z,8.01
2017-10-07T04:43:31.499Z,8.02
2017-10-07T04:46:01.304Z,7.96
2017-10-07T04:48:31.833Z,7.97
2017-10-07T04:51:01.627Z,8.12
2017-10-07T04:53:31.417Z,8.10
2017-10-07T04:56:01.191Z,7.95
2017-10-07T04:58:30.977Z,7.97
2017-10-07T05:01:00.394Z,7.98
2017-10-07T05:03:29.670Z,8.17
2017-10-07T05:05:59.106Z,8.26
2017-10-07T05:08:28.933Z,8.35
2017-10-07T05:10:58.722Z,8.46
2017-10-07T05:13:28.509Z,8.61
2017-10-07T05:15:58.307Z,8.75
2017-10-07T05:18:28.174Z,8.80
2017-10-07T05:20:57.921Z,8.80
2017-10-07T05:23:27.692Z,8.81
2017-10-07T05:25:57.719Z,8.90
2017-10-07T05:28:27.633Z,8.97
2017-10-07T05:30:57.389Z,8.96
2017-10-07T05:33:27.173Z,9.00
2017-10-07T05:35:56.936Z,9.06
2017-10-07T05:38:26.717Z,9.07
2017-10-07T05:40:56.314Z,9.18
2017-10-07T05:43:26.256Z,9.21
2017-10-07T05:45:56.037Z,9.21
2017-10-07T05:48:25.827Z,9.33
2017-10-07T05:50:55.729Z,9.35
2017-10-07T05:53:25.507Z,9.32
2017-10-07T05:55:55.438Z,9.39
2017-10-07T05:58:25.411Z,9.40
2017-10-07T06:00:55.176Z,9.47
2017-10-07T06:03:24.954Z,9.37
2017-10-07T06:05:54.722Z,9.39
2017-10-07T06:08:24.198Z,9.39
2017-10-07T06:10:53.661Z,9.48
2017-10-07T06:13:23.431Z,9.43
2017-10-07T06:15:54.226Z,9.50
2017-10-07T06:18:24.627Z,9.58
2017-10-07T06:20:54.416Z,9.65
2017-10-07T06:23:24.022Z,9.64
2017-10-07T06:25:53.622Z,9.72
2017-10-07T06:28:23.364Z,9.84
2017-10-07T06:30:53.177Z,9.87
2017-10-07T06:33:22.909Z,9.97
2017-10-07T06:35:52.634Z,10.12
2017-10-07T06:38:22.455Z,10.18
2017-10-07T06:40:52.462Z,10.08
2017-10-07T06:43:22.225Z,10.13
2017-10-07T06:45:52.089Z,10.18
2017-10-07T06:48:21.840Z,10.13
2017-10-07T06:50:51.610Z,9.89
2017-10-07T06:53:25.121Z,9.70
2017-10-07T06:55:54.745Z,9.72
2017-10-07T06:58:25.119Z,9.67
2017-10-07T07:00:54.922Z,9.62
2017-10-07T07:03:24.653Z,9.64
2017-10-07T07:05:54.434Z,9.69
2017-10-07T07:08:24.154Z,9.75
2017-10-07T07:10:53.929Z,9.85
2017-10-07T07:13:23.676Z,9.93
2017-10-07T07:15:53.542Z,9.84
2017-10-07T07:18:23.824Z,9.90
2017-10-07T07:20:53.796Z,9.86
2017-10-07T07:23:23.588Z,9.98
2017-10-07T07:25:53.998Z,9.98
2017-10-07T07:28:23.768Z,10.17
2017-10-07T07:30:53.612Z,10.33
2017-10-07T07:33:23.802Z,10.49
2017-10-07T07:35:53.565Z,10.67
2017-10-07T07:38:23.316Z,10.84
2017-10-07T07:40:53.072Z,10.86
2017-10-07T07:43:22.836Z,10.86
2017-10-07T07:45:52.904Z,10.90
2017-10-07T07:48:23.250Z,10.86
2017-10-07T07:50:57.134Z,10.93
2017-10-07T07:53:26.874Z,10.95
2017-10-07T07:55:56.801Z,11.09
2017-10-07T07:58:26.606Z,11.23
2017-10-07T08:00:56.460Z,11.40
2017-10-07T08:03:26.032Z,11.59
2017-10-07T08:05:55.852Z,11.65
2017-10-07T08:08:25.589Z,11.82
2017-10-07T08:10:55.448Z,12.05
2017-10-07T08:13:25.185Z,12.08
2017-10-07T08:15:55.017Z,12.10
2017-10-07T08:18:24.803Z,12.04
2017-10-07T08:20:54.552Z,12.06
2017-10-07T08:23:24.284Z,12.19
2017-10-07T08:25:54.065Z,12.44
2017-10-07T08:28:23.861Z,12.82
2017-10-07T08:30:54.201Z,13.83
2017-10-07T08:33:23.966Z,14.58
2017-10-07T08:35:53.729Z,14.68
2017-10-07T08:38:23.493Z,14.51
2017-10-07T08:40:53.050Z,14.57
2017-10-07T08:43:22.817Z,15.31
2017-10-07T08:45:52.568Z,15.30
2017-10-07T08:48:22.339Z,14.43
2017-10-07T08:50:52.088Z,15.58
2017-10-07T08:53:21.869Z,16.10
2017-10-07T08:55:51.311Z,16.53
2017-10-07T08:58:20.771Z,17.03
2017-10-07T09:00:50.234Z,17.55
2017-10-07T09:03:19.712Z,17.12
2017-10-07T09:05:50.112Z,17.45
2017-10-07T09:08:19.589Z,15.89
2017-10-07T09:10:49.066Z,15.28
2017-10-07T09:13:18.517Z,15.08
2017-10-07T09:15:48.260Z,14.89
2017-10-07T09:18:18.027Z,14.77
2017-10-07T09:20:47.765Z,14.41
2017-10-07T09:23:17.513Z,14.35
2017-10-07T09:25:47.882Z,14.06
2017-10-07T09:28:17.641Z,14.02
2017-10-07T09:30:51.535Z,14.19
2017-10-07T09:33:21.631Z,14.31
2017-10-07T09:35:51.390Z,14.16
2017-10-07T09:38:20.950Z,13.75
2017-10-07T09:40:50.510Z,13.44
2017-10-07T09:43:20.267Z,13.32
2017-10-07T09:45:50.010Z,13.30
2017-10-07T09:48:19.758Z,13.35
2017-10-07T09:50:49.536Z,13.20
2017-10-07T09:53:19.274Z,13.30
2017-10-07T09:55:49.072Z,13.12
2017-10-07T09:58:18.827Z,13.02
2017-10-07T10:00:48.586Z,12.85
2017-10-07T10:03:18.317Z,13.06
2017-10-07T10:05:48.069Z,13.40
2017-10-07T10:08:17.798Z,13.40
2017-10-07T10:10:47.557Z,13.56
2017-10-07T10:13:17.567Z,14.10
2017-10-07T10:15:47.854Z,14.26
2017-10-07T10:18:17.594Z,14.38
2017-10-07T10:20:47.503Z,14.32
2017-10-07T10:23:17.348Z,14.43
2017-10-07T10:25:47.429Z,14.72
2017-10-07T10:28:17.199Z,14.69
2017-10-07T10:30:46.948Z,14.97
2017-10-07T10:33:16.708Z,14.55
2017-10-07T10:35:46.465Z,14.42
2017-10-07T10:38:16.603Z,13.81
2017-10-07T10:40:46.887Z,13.31
2017-10-07T10:43:16.621Z,12.84
2017-10-07T10:45:46.400Z,12.35
2017-10-07T10:48:16.143Z,12.11
2017-10-07T10:50:45.886Z,12.16
2017-10-07T10:53:15.661Z,12.03
2017-10-07T10:55:45.393Z,12.14
2017-10-07T10:58:15.712Z,12.31
2017-10-07T11:00:45.436Z,12.82
2017-10-07T11:03:15.218Z,13.43
2017-10-07T11:05:44.982Z,13.79
2017-10-07T11:08:14.767Z,14.23
2017-10-07T11:10:44.486Z,14.16
2017-10-07T11:13:14.291Z,14.17
2017-10-07T11:15:44.076Z,14.15
2017-10-07T11:18:13.804Z,14.00
2017-10-07T11:20:43.344Z,14.46
2017-10-07T11:23:13.915Z,14.08
2017-10-07T11:25:43.675Z,14.11
2017-10-07T11:28:13.426Z,14.61
2017-10-07T11:30:43.188Z,14.92
2017-10-07T11:33:12.962Z,15.09
2017-10-07T11:35:42.706Z,15.63
2017-10-07T11:38:12.163Z,15.88
2017-10-07T11:40:41.614Z,15.86
2017-10-07T11:43:11.080Z,15.09
2017-10-07T11:45:40.572Z,14.91
2017-10-07T11:48:10.321Z,14.73
2017-10-07T11:50:40.092Z,14.28
2017-10-07T11:53:09.649Z,14.03
2017-10-07T11:55:39.417Z,13.63
2017-10-07T11:58:09.508Z,13.53
2017-10-07T12:00:39.352Z,13.27
2017-10-07T12:03:09.098Z,13.31
2017-10-07T12:05:38.881Z,13.47
2017-10-07T12:08:08.615Z,14.04
2017-10-07T12:10:38.416Z,14.69
2017-10-07T12:13:08.182Z,15.88
2017-10-07T12:15:38.629Z,16.83
2017-10-07T12:18:08.101Z,18.52
2017-10-07T12:20:37.565Z,19.19
2017-10-07T12:23:07.065Z,18.32
2017-10-07T12:25:36.356Z,18.46
2017-10-07T12:28:06.584Z,18.34
2017-10-07T12:30:36.112Z,18.67
2017-10-07T12:33:10.290Z,19.12
2017-10-07T12:35:39.776Z,19.80
2017-10-07T12:38:09.251Z,20.24
2017-10-07T12:40:38.712Z,19.16
2017-10-07T12:43:08.194Z,19.75
2017-10-07T12:45:37.728Z,19.04
2017-10-07T12:48:07.144Z,19.26
2017-10-07T12:50:37.345Z,20.08
2017-10-07T12:53:06.773Z,20.78
2017-10-07T12:55:36.233Z,19.12
2017-10-07T12:58:05.520Z,17.34
2017-10-07T13:00:34.992Z,16.56
2017-10-07T13:03:04.449Z,16.33
2017-10-07T13:05:33.940Z,16.09
2017-10-07T13:08:03.426Z,15.76
2017-10-07T13:10:32.915Z,15.90
2017-10-07T13:13:02.372Z,15.97
2017-10-07T13:15:31.834Z,15.58
2017-10-07T13:18:01.285Z,15.54
2017-10-07T13:20:30.813Z,16.10
2017-10-07T13:23:01.110Z,15.74
2017-10-07T13:25:30.584Z,15.36
2017-10-07T13:28:00.095Z,15.27
2017-10-07T13:30:29.905Z,15.34
2017-10-07T13:32:59.468Z,16.16
2017-10-07T13:35:28.943Z,16.44
2017-10-07T13:37:58.417Z,16.30
2017-10-07T13:40:27.887Z,15.70
2017-10-07T13:42:57.549Z,15.88
2017-10-07T13:45:26.827Z,15.75
2017-10-07T13:47:57.185Z,15.34
2017-10-07T13:50:26.637Z,15.08
2017-10-07T13:52:56.088Z,14.83
2017-10-07T13:55:25.540Z,14.93
2017-10-07T13:57:55.008Z,15.08
2017-10-07T14:00:24.474Z,15.08
2017-10-07T14:02:53.969Z,15.16
2017-10-07T14:05:23.413Z,15.15
2017-10-07T14:07:53.176Z,15.01
2017-10-07T14:10:22.676Z,15.17
2017-10-07T14:12:52.134Z,15.18
2017-10-07T14:15:21.621Z,15.36
2017-10-07T14:17:51.088Z,15.60
2017-10-07T14:20:20.576Z,15.84
2017-10-07T14:22:50.017Z,15.91
2017-10-07T14:25:19.490Z,16.02
2017-10-07T14:27:49.093Z,16.11
2017-10-07T14:30:18.556Z,16.58
2017-10-07T14:32:48.016Z,17.28
2017-10-07T14:35:17.521Z,16.95
2017-10-07T14:37:47.010Z,16.04
2017-10-07T14:40:16.613Z,15.67
2017-10-07T14:42:46.071Z,15.49
2017-10-07T14:45:15.529Z,15.02
2017-10-07T14:47:45.332Z,14.92
2017-10-07T14:50:15.064Z,14.86
2017-10-07T14:52:44.877Z,14.96
2017-10-07T14:55:14.625Z,14.84
2017-10-07T14:57:44.096Z,14.85
2017-10-07T15:00:13.860Z,14.65
2017-10-07T15:02:43.634Z,14.30
2017-10-07T15:05:13.517Z,14.23
2017-10-07T15:07:43.338Z,14.34
2017-10-07T15:10:12.880Z,14.49
2017-10-07T15:12:42.433Z,14.41
2017-10-07T15:15:12.270Z,14.45
2017-10-07T15:17:41.996Z,14.43
2017-10-07T15:20:11.780Z,14.41
2017-10-07T15:22:41.231Z,14.39
2017-10-07T15:25:10.701Z,13.92
2017-10-07T15:27:40.452Z,13.71
2017-10-07T15:30:10.196Z,13.53
2017-10-07T15:32:39.946Z,13.35
2017-10-07T15:35:09.719Z,13.25
2017-10-07T15:37:39.484Z,13.18
2017-10-07T15:40:09.246Z,13.10
2017-10-07T15:42:39.002Z,13.06
2017-10-07T15:45:08.745Z,13.00
2017-10-07T15:47:38.493Z,12.94
2017-10-07T15:50:08.261Z,12.89
2017-10-07T15:52:37.987Z,12.75
2017-10-07T15:55:07.733Z,12.63
2017-10-07T15:57:37.496Z,12.50
2017-10-07T16:00:07.251Z,12.35
2017-10-07T16:02:36.834Z,12.21
2017-10-07T16:05:06.601Z,12.10
2017-10-07T16:07:36.336Z,11.89
2017-10-07T16:10:05.932Z,11.73
2017-10-07T16:12:35.552Z,11.71
2017-10-07T16:15:05.205Z,11.57
2017-10-07T16:17:34.944Z,11.53
2017-10-07T16:20:04.686Z,11.35
2017-10-07T16:22:34.430Z,11.23
2017-10-07T16:25:04.247Z,11.11
2017-10-07T16:27:34.051Z,11.02
2017-10-07T16:30:03.813Z,11.01
2017-10-07T16:32:33.810Z,10.89
2017-10-07T16:35:03.610Z,10.68
2017-10-07T16:37:33.362Z,10.57
2017-10-07T16:40:03.175Z,10.39
2017-10-07T16:42:32.797Z,10.07
2017-10-07T16:45:02.520Z,9.86
2017-10-07T16:47:32.099Z,9.60
2017-10-07T16:50:01.832Z,9.40
2017-10-07T16:52:31.609Z,9.23
2017-10-07T16:55:01.366Z,9.08
2017-10-07T16:57:31.134Z,8.90
2017-10-07T17:00:00.887Z,8.73
2017-10-07T17:02:30.476Z,8.56
2017-10-07T17:05:00.083Z,8.39
2017-10-07T17:07:29.847Z,8.28
2017-10-07T17:09:59.584Z,8.15
2017-10-07T17:12:29.155Z,8.04
2017-10-07T17:14:58.767Z,7.96
2017-10-07T17:17:28.490Z,8.16
2017-10-07T17:20:02.296Z,8.13
2017-10-07T17:22:33.960Z,8.15
2017-10-07T17:25:04.067Z,8.22
2017-10-07T17:27:33.808Z,8.53
2017-10-07T17:30:03.545Z,8.70
2017-10-07T17:32:33.305Z,8.67
2017-10-07T17:35:03.022Z,8.68
2017-10-07T17:37:32.770Z,8.77
2017-10-07T17:40:02.551Z,8.84
2017-10-07T17:42:32.286Z,9.00
2017-10-07T17:45:02.021Z,9.19
2017-10-07T17:47:31.825Z,9.14
2017-10-07T17:50:01.589Z,9.26
2017-10-07T17:52:31.347Z,9.33
2017-10-07T17:55:01.070Z,9.45
2017-10-07T17:57:30.853Z,9.43
2017-10-07T18:00:00.632Z,9.49
2017-10-07T18:02:30.367Z,9.43
2017-10-07T18:05:00.120Z,9.41
2017-10-07T18:07:29.852Z,9.50
2017-10-07T18:09:59.616Z,9.46
2017-10-07T18:12:29.397Z,9.50
2017-10-07T18:14:59.192Z,9.57
2017-10-07T18:17:28.945Z,9.59
2017-10-07T18:19:58.684Z,9.64
2017-10-07T18:22:28.443Z,9.66
2017-10-07T18:24:58.211Z,9.74
2017-10-07T18:27:27.945Z,9.76
2017-10-07T18:29:57.489Z,9.84
2017-10-07T18:32:27.082Z,10.03
2017-10-07T18:34:56.808Z,9.97
2017-10-07T18:37:26.620Z,9.89
2017-10-07T18:39:56.370Z,9.78
2017-10-07T18:42:26.134Z,9.88
2017-10-07T18:44:55.889Z,9.91
2017-10-07T18:47:25.670Z,9.86
2017-10-07T18:49:55.425Z,9.83
2017-10-07T18:52:25.167Z,9.80
2017-10-07T18:54:54.906Z,9.92
2017-10-07T18:57:24.672Z,9.89
2017-10-07T18:59:54.420Z,9.84
2017-10-07T19:02:24.155Z,9.80
2017-10-07T19:04:53.711Z,9.62
2017-10-07T19:07:23.437Z,9.45
2017-10-07T19:09:53.186Z,9.36
2017-10-07T19:12:22.917Z,9.35
2017-10-07T19:14:52.651Z,9.46
2017-10-07T19:17:22.382Z,9.52
2017-10-07T19:19:52.132Z,9.60
2017-10-07T19:22:22.102Z,9.58
2017-10-07T19:24:51.840Z,9.49
2017-10-07T19:27:21.586Z,9.50
2017-10-07T19:29:51.342Z,9.50
2017-10-07T19:32:21.897Z,9.45
2017-10-07T19:34:51.623Z,9.52
2017-10-07T19:37:21.385Z,9.54
2017-10-07T19:39:51.127Z,9.59
2017-10-07T19:42:20.865Z,9.59
2017-10-07T19:44:54.462Z,9.61
2017-10-07T19:47:24.208Z,9.60
2017-10-07T19:49:53.977Z,9.50
2017-10-07T19:52:23.714Z,9.46
2017-10-07T19:54:53.477Z,9.42
2017-10-07T19:57:23.215Z,9.37
2017-10-07T19:59:52.966Z,9.30
2017-10-07T20:02:22.701Z,9.19
2017-10-07T20:04:52.456Z,9.14
2017-10-07T20:07:22.211Z,9.10
2017-10-07T20:09:51.974Z,9.01
2017-10-07T20:12:21.726Z,8.93
2017-10-07T20:14:51.493Z,8.90
2017-10-07T20:17:21.238Z,8.89
2017-10-07T20:19:50.605Z,8.87
2017-10-07T20:22:20.377Z,8.89
2017-10-07T20:24:51.626Z,8.87
2017-10-07T20:27:22.194Z,8.91
2017-10-07T20:29:51.942Z,8.96
2017-10-07T20:32:21.701Z,8.97
2017-10-07T20:34:51.441Z,8.98
2017-10-07T20:37:21.202Z,8.93
2017-10-07T20:39:50.939Z,8.94
2017-10-07T20:42:20.733Z,8.98
2017-10-07T20:44:50.472Z,9.09
2017-10-07T20:47:20.214Z,9.33
2017-10-07T20:49:49.961Z,9.32
2017-10-07T20:52:19.696Z,9.33
2017-10-07T20:54:49.444Z,9.30
2017-10-07T20:57:19.174Z,9.33
2017-10-07T20:59:48.906Z,9.37
2017-10-07T21:02:18.629Z,9.34
2017-10-07T21:04:48.402Z,9.41
2017-10-07T21:07:18.155Z,9.42
2017-10-07T21:09:47.913Z,9.34
2017-10-07T21:12:17.664Z,9.44
2017-10-07T21:14:47.384Z,9.44
2017-10-07T21:17:17.661Z,9.44
2017-10-07T21:19:47.862Z,9.36
2017-10-07T21:22:30.072Z,9.29
2017-10-07T21:25:05.145Z,9.30
2017-10-07T21:27:36.095Z,9.14
2017-10-07T21:30:06.872Z,9.06
2017-10-07T21:32:37.901Z,9.00
2017-10-07T21:35:08.552Z,8.93
2017-10-07T21:37:39.654Z,8.90
2017-10-07T21:40:09.697Z,8.89
2017-10-07T21:42:39.828Z,8.86
2017-10-07T21:45:09.713Z,8.82
2017-10-07T21:47:39.399Z,8.78
2017-10-07T21:50:09.253Z,8.76
2017-10-07T21:52:44.439Z,8.81
2017-10-07T21:55:15.183Z,8.82
2017-10-07T21:57:45.914Z,8.77
2017-10-07T22:00:16.588Z,8.74
2017-10-07T22:02:46.946Z,8.73
2017-10-07T22:05:16.906Z,8.71
2017-10-07T22:07:46.754Z,8.80
2017-10-07T22:10:16.419Z,8.80
2017-10-07T22:12:46.289Z,8.79
2017-10-07T22:15:16.074Z,8.83
2017-10-07T22:17:45.967Z,8.85
2017-10-07T22:20:15.878Z,8.89
2017-10-07T22:22:45.646Z,8.98
2017-10-07T22:25:15.538Z,8.98
2017-10-07T22:27:45.452Z,9.05
2017-10-07T22:30:15.562Z,9.21
2017-10-07T22:32:45.443Z,9.36
2017-10-07T22:35:15.437Z,9.46
2017-10-07T22:37:45.275Z,9.52
2017-10-07T22:40:15.145Z,9.53
2017-10-07T22:42:44.921Z,9.62
2017-10-07T22:45:15.406Z,9.74
2017-10-07T22:47:45.212Z,9.80
2017-10-07T22:50:15.140Z,9.78
2017-10-07T22:52:45.080Z,9.84
2017-10-07T22:55:14.934Z,9.90
2017-10-07T22:57:44.873Z,9.87
2017-10-07T23:00:14.637Z,9.90
2017-10-07T23:02:44.378Z,9.93
2017-10-07T23:05:14.299Z,10.00
2017-10-07T23:07:44.163Z,10.03
2017-10-07T23:10:13.923Z,10.03
2017-10-07T23:12:47.596Z,10.01
2017-10-07T23:15:17.515Z,9.98
2017-10-07T23:17:47.878Z,9.92
2017-10-07T23:20:17.787Z,9.91
2017-10-07T23:22:47.631Z,10.03
2017-10-07T23:25:17.666Z,10.10
2017-10-07T23:27:47.512Z,10.10
2017-10-07T23:30:17.388Z,10.11
2017-10-07T23:32:47.259Z,10.11
2017-10-07T23:35:17.098Z,10.11
2017-10-07T23:37:46.808Z,10.08
2017-10-07T23:40:16.749Z,10.04
2017-10-07T23:42:46.636Z,10.02
2017-10-07T23:45:16.543Z,10.05
2017-10-07T23:47:46.409Z,10.03
2017-10-07T23:50:16.257Z,10.06
2017-10-07T23:52:46.064Z,10.06
2017-10-07T23:55:15.965Z,10.06
2017-10-07T23:57:45.848Z,10.00
